SCCY/GXQ METAR and TAF weather

Enter ICAO airport designator
Station Type Date Time Source
SCCY METAR 2020/01/20 19:00 UTC NOAA

SCCY 201900Z VRB05KT 9999 FEW040 25/11 Q1016


Station Type Date Time Source
SCCY Decoded METAR 2020/01/20 19:00 UTC NOAA

Coyhaique, Chile (SCCY) 45-35S 072-07W
Jan 20, 2020 - 02:00 PM EST / 2020.01.20 1900 UTC
Wind: Variable at 6 MPH (5 KT):0
Visibility: greater than 7 mile(s):0
Sky conditions: mostly clear
Temperature: 77 F (25 C)
Dew Point: 51 F (11 C)
Relative Humidity: 41%
Pressure (altimeter): 30.00 in. Hg (1016 hPa)
ob: SCCY 201900Z VRB05KT 9999 FEW040 25/11 Q1016
cycle: 19

Station Type Date Time Source
SCCY TAF 2020/01/20 12:33 UTC NOAA

TAF SCCY 201009Z 2012/2024 36003KT CAVOK TN11/2012Z TX26/2018Z
TEMPO 2012/2015 09005KT SCT025
BECMG 2017/2019 25007KT

Example: see airport list